sensor_id;sensor_type;location;lat;lon;timestamp;P1;durP1;ratioP1;P2;durP2;ratioP2
60426;SDS011;46274;47.168;27.604;2023-03-04T00:00:28;56.07;;;22.70;;
60426;SDS011;46274;47.168;27.604;2023-03-04T00:06:30;56.17;;;23.60;;
60426;SDS011;46274;47.168;27.604;2023-03-04T00:12:31;50.07;;;21.13;;
60426;SDS011;46274;47.168;27.604;2023-03-04T00:18:38;43.83;;;18.90;;
60426;SDS011;46274;47.168;27.604;2023-03-04T00:24:41;43.83;;;18.27;;
60426;SDS011;46274;47.168;27.604;2023-03-04T00:30:43;45.87;;;18.27;;
60426;SDS011;46274;47.168;27.604;2023-03-04T00:36:46;48.60;;;19.87;;
60426;SDS011;46274;47.168;27.604;2023-03-04T00:42:48;71.87;;;28.17;;
60426;SDS011;46274;47.168;27.604;2023-03-04T00:48:50;78.27;;;29.93;;
60426;SDS011;46274;47.168;27.604;2023-03-04T00:54:52;71.77;;;27.93;;
60426;SDS011;46274;47.168;27.604;2023-03-04T01:00:54;54.37;;;23.83;;
60426;SDS011;46274;47.168;27.604;2023-03-04T01:06:57;65.77;;;25.47;;
60426;SDS011;46274;47.168;27.604;2023-03-04T01:12:58;61.17;;;23.70;;
60426;SDS011;46274;47.168;27.604;2023-03-04T01:19:00;69.87;;;28.30;;
60426;SDS011;46274;47.168;27.604;2023-03-04T01:25:03;57.00;;;24.30;;
60426;SDS011;46274;47.168;27.604;2023-03-04T01:31:06;71.80;;;25.77;;
60426;SDS011;46274;47.168;27.604;2023-03-04T01:37:08;61.43;;;23.67;;
60426;SDS011;46274;47.168;27.604;2023-03-04T01:43:14;63.20;;;25.20;;
60426;SDS011;46274;47.168;27.604;2023-03-04T01:49:20;264.20;;;77.93;;
60426;SDS011;46274;47.168;27.604;2023-03-04T01:55:23;117.73;;;38.57;;
60426;SDS011;46274;47.168;27.604;2023-03-04T02:01:26;73.30;;;27.60;;
60426;SDS011;46274;47.168;27.604;2023-03-04T02:07:31;69.37;;;24.47;;
60426;SDS011;46274;47.168;27.604;2023-03-04T02:13:40;77.37;;;29.67;;
60426;SDS011;46274;47.168;27.604;2023-03-04T02:19:48;75.33;;;28.30;;
60426;SDS011;46274;47.168;27.604;2023-03-04T02:32:23;71.37;;;25.53;;
60426;SDS011;46274;47.168;27.604;2023-03-04T02:38:26;64.00;;;24.37;;
60426;SDS011;46274;47.168;27.604;2023-03-04T02:44:39;67.97;;;24.03;;
60426;SDS011;46274;47.168;27.604;2023-03-04T02:50:45;67.37;;;26.47;;
60426;SDS011;46274;47.168;27.604;2023-03-04T02:56:52;59.50;;;24.73;;
60426;SDS011;46274;47.168;27.604;2023-03-04T03:03:01;63.97;;;26.20;;
60426;SDS011;46274;47.168;27.604;2023-03-04T03:09:05;69.10;;;27.87;;
60426;SDS011;46274;47.168;27.604;2023-03-04T03:15:12;52.97;;;22.83;;
60426;SDS011;46274;47.168;27.604;2023-03-04T03:21:14;62.77;;;25.83;;
60426;SDS011;46274;47.168;27.604;2023-03-04T03:27:17;54.23;;;22.23;;
60426;SDS011;46274;47.168;27.604;2023-03-04T03:33:22;69.57;;;27.43;;
60426;SDS011;46274;47.168;27.604;2023-03-04T03:39:25;50.73;;;20.40;;
60426;SDS011;46274;47.168;27.604;2023-03-04T03:45:27;64.10;;;25.30;;
60426;SDS011;46274;47.168;27.604;2023-03-04T03:51:29;89.23;;;33.33;;
60426;SDS011;46274;47.168;27.604;2023-03-04T03:57:34;68.00;;;27.97;;
60426;SDS011;46274;47.168;27.604;2023-03-04T04:03:37;71.13;;;30.50;;
60426;SDS011;46274;47.168;27.604;2023-03-04T04:09:39;68.43;;;28.20;;
60426;SDS011;46274;47.168;27.604;2023-03-04T04:15:46;51.37;;;22.77;;
60426;SDS011;46274;47.168;27.604;2023-03-04T04:21:49;47.47;;;21.37;;
60426;SDS011;46274;47.168;27.604;2023-03-04T04:28:02;54.03;;;22.70;;
60426;SDS011;46274;47.168;27.604;2023-03-04T04:34:05;51.60;;;21.60;;
60426;SDS011;46274;47.168;27.604;2023-03-04T04:40:07;52.60;;;22.27;;
60426;SDS011;46274;47.168;27.604;2023-03-04T04:46:12;57.27;;;22.97;;
60426;SDS011;46274;47.168;27.604;2023-03-04T04:52:14;82.97;;;31.13;;
60426;SDS011;46274;47.168;27.604;2023-03-04T04:58:16;68.30;;;25.83;;
60426;SDS011;46274;47.168;27.604;2023-03-04T05:04:18;60.37;;;23.90;;
60426;SDS011;46274;47.168;27.604;2023-03-04T05:10:37;75.67;;;25.80;;
60426;SDS011;46274;47.168;27.604;2023-03-04T05:16:41;65.43;;;25.80;;
60426;SDS011;46274;47.168;27.604;2023-03-04T05:22:44;60.97;;;24.17;;
60426;SDS011;46274;47.168;27.604;2023-03-04T05:28:45;66.53;;;25.37;;
60426;SDS011;46274;47.168;27.604;2023-03-04T05:34:47;57.97;;;24.07;;
60426;SDS011;46274;47.168;27.604;2023-03-04T05:41:00;62.70;;;26.40;;
60426;SDS011;46274;47.168;27.604;2023-03-04T05:47:04;75.20;;;27.00;;
60426;SDS011;46274;47.168;27.604;2023-03-04T05:53:07;55.20;;;22.40;;
60426;SDS011;46274;47.168;27.604;2023-03-04T05:59:09;63.60;;;25.70;;
60426;SDS011;46274;47.168;27.604;2023-03-04T06:05:12;84.13;;;29.63;;
60426;SDS011;46274;47.168;27.604;2023-03-04T06:11:15;67.00;;;27.40;;
60426;SDS011;46274;47.168;27.604;2023-03-04T06:17:18;63.30;;;25.80;;
60426;SDS011;46274;47.168;27.604;2023-03-04T06:23:23;82.93;;;30.53;;
60426;SDS011;46274;47.168;27.604;2023-03-04T06:29:26;66.80;;;28.07;;
60426;SDS011;46274;47.168;27.604;2023-03-04T06:35:28;62.50;;;24.53;;
60426;SDS011;46274;47.168;27.604;2023-03-04T06:41:31;70.57;;;27.13;;
60426;SDS011;46274;47.168;27.604;2023-03-04T06:47:33;62.13;;;23.93;;
60426;SDS011;46274;47.168;27.604;2023-03-04T06:53:36;59.40;;;24.93;;
60426;SDS011;46274;47.168;27.604;2023-03-04T06:59:39;69.97;;;24.00;;
60426;SDS011;46274;47.168;27.604;2023-03-04T07:05:42;68.90;;;27.23;;
60426;SDS011;46274;47.168;27.604;2023-03-04T07:11:45;73.93;;;30.73;;
60426;SDS011;46274;47.168;27.604;2023-03-04T07:17:47;73.47;;;28.43;;
60426;SDS011;46274;47.168;27.604;2023-03-04T07:23:52;76.37;;;31.20;;
60426;SDS011;46274;47.168;27.604;2023-03-04T07:29:54;66.83;;;26.80;;
60426;SDS011;46274;47.168;27.604;2023-03-04T07:35:58;73.83;;;31.17;;
60426;SDS011;46274;47.168;27.604;2023-03-04T07:42:00;69.37;;;28.83;;
60426;SDS011;46274;47.168;27.604;2023-03-04T07:48:03;75.53;;;31.63;;
60426;SDS011;46274;47.168;27.604;2023-03-04T07:54:05;65.17;;;27.40;;
60426;SDS011;46274;47.168;27.604;2023-03-04T08:00:09;78.47;;;32.97;;
60426;SDS011;46274;47.168;27.604;2023-03-04T08:06:14;58.83;;;24.83;;
60426;SDS011;46274;47.168;27.604;2023-03-04T08:12:18;52.00;;;21.70;;
60426;SDS011;46274;47.168;27.604;2023-03-04T08:18:20;43.90;;;19.23;;
60426;SDS011;46274;47.168;27.604;2023-03-04T08:24:30;36.27;;;17.17;;
60426;SDS011;46274;47.168;27.604;2023-03-04T08:30:36;36.53;;;17.20;;
60426;SDS011;46274;47.168;27.604;2023-03-04T08:36:39;32.33;;;15.70;;
60426;SDS011;46274;47.168;27.604;2023-03-04T08:42:57;39.83;;;16.57;;
60426;SDS011;46274;47.168;27.604;2023-03-04T08:49:06;34.70;;;17.27;;
60426;SDS011;46274;47.168;27.604;2023-03-04T08:55:14;35.77;;;16.93;;
60426;SDS011;46274;47.168;27.604;2023-03-04T09:01:20;39.80;;;18.00;;
60426;SDS011;46274;47.168;27.604;2023-03-04T09:07:37;43.13;;;18.33;;
60426;SDS011;46274;47.168;27.604;2023-03-04T09:13:42;35.87;;;17.60;;
60426;SDS011;46274;47.168;27.604;2023-03-04T09:19:47;43.60;;;19.70;;
60426;SDS011;46274;47.168;27.604;2023-03-04T09:26:01;41.27;;;19.03;;
60426;SDS011;46274;47.168;27.604;2023-03-04T09:32:20;37.63;;;18.37;;
60426;SDS011;46274;47.168;27.604;2023-03-04T09:38:30;31.93;;;15.70;;
60426;SDS011;46274;47.168;27.604;2023-03-04T09:44:41;27.43;;;14.43;;
60426;SDS011;46274;47.168;27.604;2023-03-04T09:57:29;28.67;;;12.77;;
60426;SDS011;46274;47.168;27.604;2023-03-04T10:04:02;24.23;;;12.23;;
60426;SDS011;46274;47.168;27.604;2023-03-04T10:10:36;20.40;;;10.60;;
60426;SDS011;46274;47.168;27.604;2023-03-04T10:16:45;23.40;;;11.70;;
60426;SDS011;46274;47.168;27.604;2023-03-04T10:23:04;20.60;;;10.77;;
60426;SDS011;46274;47.168;27.604;2023-03-04T10:29:25;26.93;;;10.37;;
60426;SDS011;46274;47.168;27.604;2023-03-04T10:35:34;21.43;;;9.63;;
60426;SDS011;46274;47.168;27.604;2023-03-04T10:41:59;18.03;;;9.23;;
60426;SDS011;46274;47.168;27.604;2023-03-04T10:48:16;16.83;;;8.63;;
60426;SDS011;46274;47.168;27.604;2023-03-04T10:54:46;22.03;;;8.87;;
60426;SDS011;46274;47.168;27.604;2023-03-04T11:01:02;16.23;;;8.97;;
60426;SDS011;46274;47.168;27.604;2023-03-04T11:07:24;17.30;;;9.00;;
60426;SDS011;46274;47.168;27.604;2023-03-04T11:13:57;19.03;;;9.50;;
60426;SDS011;46274;47.168;27.604;2023-03-04T11:20:22;18.97;;;9.23;;
60426;SDS011;46274;47.168;27.604;2023-03-04T11:26:52;20.07;;;9.97;;
60426;SDS011;46274;47.168;27.604;2023-03-04T11:39:30;15.87;;;8.27;;
60426;SDS011;46274;47.168;27.604;2023-03-04T12:31:34;18.33;;;9.50;;
60426;SDS011;46274;47.168;27.604;2023-03-04T12:44:15;16.17;;;7.87;;
60426;SDS011;46274;47.168;27.604;2023-03-04T12:56:43;21.70;;;10.13;;
60426;SDS011;46274;47.168;27.604;2023-03-04T13:09:29;19.40;;;8.73;;
60426;SDS011;46274;47.168;27.604;2023-03-04T13:15:44;19.33;;;9.77;;
60426;SDS011;46274;47.168;27.604;2023-03-04T13:22:23;17.50;;;8.87;;
60426;SDS011;46274;47.168;27.604;2023-03-04T13:28:43;17.47;;;9.20;;
60426;SDS011;46274;47.168;27.604;2023-03-04T13:34:51;14.83;;;8.63;;
60426;SDS011;46274;47.168;27.604;2023-03-04T13:41:21;21.60;;;9.37;;
60426;SDS011;46274;47.168;27.604;2023-03-04T13:47:41;22.77;;;9.10;;
60426;SDS011;46274;47.168;27.604;2023-03-04T14:00:14;22.80;;;10.57;;
60426;SDS011;46274;47.168;27.604;2023-03-04T14:06:29;19.17;;;9.97;;
60426;SDS011;46274;47.168;27.604;2023-03-04T14:12:41;16.80;;;9.17;;
60426;SDS011;46274;47.168;27.604;2023-03-04T14:19:06;19.37;;;9.90;;
60426;SDS011;46274;47.168;27.604;2023-03-04T14:25:31;19.50;;;10.27;;
60426;SDS011;46274;47.168;27.604;2023-03-04T14:31:37;17.87;;;9.40;;
60426;SDS011;46274;47.168;27.604;2023-03-04T14:37:43;23.13;;;11.47;;
60426;SDS011;46274;47.168;27.604;2023-03-04T14:50:34;20.13;;;10.33;;
60426;SDS011;46274;47.168;27.604;2023-03-04T14:57:21;19.93;;;9.70;;
60426;SDS011;46274;47.168;27.604;2023-03-04T15:03:57;16.87;;;9.37;;
60426;SDS011;46274;47.168;27.604;2023-03-04T15:10:37;16.00;;;8.73;;
60426;SDS011;46274;47.168;27.604;2023-03-04T15:16:52;19.97;;;8.93;;
60426;SDS011;46274;47.168;27.604;2023-03-04T15:23:06;21.43;;;9.37;;
60426;SDS011;46274;47.168;27.604;2023-03-04T15:29:46;16.10;;;9.33;;
60426;SDS011;46274;47.168;27.604;2023-03-04T15:36:14;17.60;;;8.70;;
60426;SDS011;46274;47.168;27.604;2023-03-04T15:42:53;18.10;;;9.10;;
60426;SDS011;46274;47.168;27.604;2023-03-04T15:49:11;24.67;;;10.03;;
60426;SDS011;46274;47.168;27.604;2023-03-04T15:55:23;18.17;;;9.27;;
60426;SDS011;46274;47.168;27.604;2023-03-04T16:01:32;17.60;;;8.53;;
60426;SDS011;46274;47.168;27.604;2023-03-04T16:07:44;20.83;;;9.93;;
60426;SDS011;46274;47.168;27.604;2023-03-04T16:13:59;22.20;;;10.47;;
60426;SDS011;46274;47.168;27.604;2023-03-04T16:20:10;20.73;;;9.83;;
60426;SDS011;46274;47.168;27.604;2023-03-04T16:26:31;16.87;;;8.27;;
60426;SDS011;46274;47.168;27.604;2023-03-04T16:32:48;25.13;;;9.60;;
60426;SDS011;46274;47.168;27.604;2023-03-04T16:38:57;29.70;;;12.63;;
60426;SDS011;46274;47.168;27.604;2023-03-04T16:45:15;30.87;;;12.67;;
60426;SDS011;46274;47.168;27.604;2023-03-04T16:51:24;33.67;;;13.40;;
60426;SDS011;46274;47.168;27.604;2023-03-04T16:57:42;31.83;;;13.07;;
60426;SDS011;46274;47.168;27.604;2023-03-04T17:04:04;25.83;;;10.30;;
60426;SDS011;46274;47.168;27.604;2023-03-04T17:10:09;27.70;;;11.33;;
60426;SDS011;46274;47.168;27.604;2023-03-04T17:16:33;22.30;;;11.17;;
60426;SDS011;46274;47.168;27.604;2023-03-04T17:22:45;24.07;;;11.27;;
60426;SDS011;46274;47.168;27.604;2023-03-04T17:28:53;25.53;;;11.63;;
60426;SDS011;46274;47.168;27.604;2023-03-04T17:34:56;30.63;;;14.57;;
60426;SDS011;46274;47.168;27.604;2023-03-04T17:41:28;30.00;;;13.73;;
60426;SDS011;46274;47.168;27.604;2023-03-04T17:47:36;31.43;;;13.40;;
60426;SDS011;46274;47.168;27.604;2023-03-04T17:54:00;33.00;;;15.77;;
60426;SDS011;46274;47.168;27.604;2023-03-04T18:00:03;21.90;;;10.80;;
60426;SDS011;46274;47.168;27.604;2023-03-04T18:12:50;21.63;;;9.40;;
60426;SDS011;46274;47.168;27.604;2023-03-04T18:18:53;24.70;;;12.07;;
60426;SDS011;46274;47.168;27.604;2023-03-04T18:25:05;35.10;;;15.53;;
60426;SDS011;46274;47.168;27.604;2023-03-04T18:31:26;32.93;;;14.13;;
60426;SDS011;46274;47.168;27.604;2023-03-04T18:37:40;18.53;;;8.87;;
60426;SDS011;46274;47.168;27.604;2023-03-04T18:43:46;18.20;;;8.73;;
60426;SDS011;46274;47.168;27.604;2023-03-04T18:49:52;18.73;;;9.57;;
60426;SDS011;46274;47.168;27.604;2023-03-04T18:56:16;21.97;;;10.17;;
60426;SDS011;46274;47.168;27.604;2023-03-04T19:02:31;31.63;;;13.80;;
60426;SDS011;46274;47.168;27.604;2023-03-04T19:08:37;35.27;;;12.70;;
60426;SDS011;46274;47.168;27.604;2023-03-04T19:14:40;37.10;;;15.80;;
60426;SDS011;46274;47.168;27.604;2023-03-04T19:20:42;42.40;;;18.57;;
60426;SDS011;46274;47.168;27.604;2023-03-04T19:26:44;54.37;;;21.73;;
60426;SDS011;46274;47.168;27.604;2023-03-04T19:32:46;63.73;;;24.97;;
60426;SDS011;46274;47.168;27.604;2023-03-04T19:38:50;65.80;;;24.47;;
60426;SDS011;46274;47.168;27.604;2023-03-04T19:44:52;70.67;;;27.07;;
60426;SDS011;46274;47.168;27.604;2023-03-04T19:50:55;69.13;;;26.60;;
60426;SDS011;46274;47.168;27.604;2023-03-04T19:56:57;72.90;;;27.63;;
60426;SDS011;46274;47.168;27.604;2023-03-04T20:02:59;70.50;;;27.63;;
60426;SDS011;46274;47.168;27.604;2023-03-04T20:09:02;80.60;;;28.20;;
60426;SDS011;46274;47.168;27.604;2023-03-04T20:15:06;74.03;;;28.57;;
60426;SDS011;46274;47.168;27.604;2023-03-04T20:21:09;72.47;;;27.63;;
60426;SDS011;46274;47.168;27.604;2023-03-04T20:27:13;64.73;;;25.77;;
60426;SDS011;46274;47.168;27.604;2023-03-04T20:33:17;75.40;;;27.37;;
60426;SDS011;46274;47.168;27.604;2023-03-04T20:39:19;81.23;;;29.27;;
60426;SDS011;46274;47.168;27.604;2023-03-04T20:45:33;68.80;;;28.23;;
60426;SDS011;46274;47.168;27.604;2023-03-04T20:51:41;73.43;;;25.73;;
60426;SDS011;46274;47.168;27.604;2023-03-04T20:57:44;66.07;;;27.07;;
60426;SDS011;46274;47.168;27.604;2023-03-04T21:03:48;67.27;;;26.37;;
60426;SDS011;46274;47.168;27.604;2023-03-04T21:09:51;70.47;;;27.23;;
60426;SDS011;46274;47.168;27.604;2023-03-04T21:15:53;74.83;;;30.33;;
60426;SDS011;46274;47.168;27.604;2023-03-04T21:21:56;66.30;;;26.10;;
60426;SDS011;46274;47.168;27.604;2023-03-04T21:28:00;64.77;;;26.27;;
60426;SDS011;46274;47.168;27.604;2023-03-04T21:34:03;67.73;;;27.27;;
60426;SDS011;46274;47.168;27.604;2023-03-04T21:40:05;68.10;;;27.77;;
60426;SDS011;46274;47.168;27.604;2023-03-04T21:46:12;65.93;;;25.77;;
60426;SDS011;46274;47.168;27.604;2023-03-04T21:52:18;69.33;;;27.33;;
60426;SDS011;46274;47.168;27.604;2023-03-04T21:58:22;63.00;;;24.93;;
60426;SDS011;46274;47.168;27.604;2023-03-04T22:04:25;65.47;;;27.33;;
60426;SDS011;46274;47.168;27.604;2023-03-04T22:10:27;53.13;;;22.47;;
60426;SDS011;46274;47.168;27.604;2023-03-04T22:16:39;59.23;;;25.83;;
60426;SDS011;46274;47.168;27.604;2023-03-04T22:22:55;45.67;;;21.03;;
60426;SDS011;46274;47.168;27.604;2023-03-04T22:28:59;43.27;;;17.77;;
60426;SDS011;46274;47.168;27.604;2023-03-04T22:35:03;41.33;;;17.33;;
60426;SDS011;46274;47.168;27.604;2023-03-04T22:41:11;46.07;;;18.80;;
60426;SDS011;46274;47.168;27.604;2023-03-04T22:47:17;46.10;;;18.77;;
60426;SDS011;46274;47.168;27.604;2023-03-04T22:53:21;32.00;;;14.03;;
60426;SDS011;46274;47.168;27.604;2023-03-04T22:59:26;37.60;;;16.03;;
60426;SDS011;46274;47.168;27.604;2023-03-04T23:05:28;33.13;;;15.33;;
60426;SDS011;46274;47.168;27.604;2023-03-04T23:11:31;39.43;;;14.93;;
60426;SDS011;46274;47.168;27.604;2023-03-04T23:17:36;43.13;;;16.60;;
60426;SDS011;46274;47.168;27.604;2023-03-04T23:23:45;35.70;;;15.33;;
60426;SDS011;46274;47.168;27.604;2023-03-04T23:29:49;41.83;;;16.27;;
60426;SDS011;46274;47.168;27.604;2023-03-04T23:35:53;36.77;;;16.53;;
60426;SDS011;46274;47.168;27.604;2023-03-04T23:41:56;30.50;;;14.13;;
60426;SDS011;46274;47.168;27.604;2023-03-04T23:47:58;30.70;;;12.63;;
60426;SDS011;46274;47.168;27.604;2023-03-04T23:54:00;28.03;;;12.73;;
